sensor_id;sensor_type;location;lat;lon;timestamp;temperature;humidity
16929;DHT22;8581;47.334;11.190;2023-03-01T00:01:23;-1.70;99.90
16929;DHT22;8581;47.334;11.190;2023-03-01T00:03:53;-1.80;99.90
16929;DHT22;8581;47.334;11.190;2023-03-01T00:06:25;-1.80;99.90
16929;DHT22;8581;47.334;11.190;2023-03-01T00:08:56;-1.70;99.90
16929;DHT22;8581;47.334;11.190;2023-03-01T00:11:29;-1.60;99.90
16929;DHT22;8581;47.334;11.190;2023-03-01T00:14:00;-1.40;99.90
16929;DHT22;8581;47.334;11.190;2023-03-01T00:16:33;-1.50;99.90
16929;DHT22;8581;47.334;11.190;2023-03-01T00:19:04;-1.50;99.90
16929;DHT22;8581;47.334;11.190;2023-03-01T00:21:36;-1.70;99.90
16929;DHT22;8581;47.334;11.190;2023-03-01T00:24:08;-1.80;99.90
16929;DHT22;8581;47.334;11.190;2023-03-01T00:26:39;-2.00;99.90
16929;DHT22;8581;47.334;11.190;2023-03-01T00:29:11;-1.90;99.90
16929;DHT22;8581;47.334;11.190;2023-03-01T00:31:42;-1.70;99.90
16929;DHT22;8581;47.334;11.190;2023-03-01T00:34:14;-1.70;99.90
16929;DHT22;8581;47.334;11.190;2023-03-01T00:36:45;-1.80;99.90
16929;DHT22;8581;47.334;11.190;2023-03-01T00:39:17;-1.60;99.90
16929;DHT22;8581;47.334;11.190;2023-03-01T00:41:48;-1.60;99.90
16929;DHT22;8581;47.334;11.190;2023-03-01T00:44:20;-1.60;99.90
16929;DHT22;8581;47.334;11.190;2023-03-01T00:46:52;-1.70;99.90
16929;DHT22;8581;47.334;11.190;2023-03-01T00:49:23;-1.80;99.90
16929;DHT22;8581;47.334;11.190;2023-03-01T00:51:55;-1.80;99.90
16929;DHT22;8581;47.334;11.190;2023-03-01T00:54:27;-1.70;99.90
16929;DHT22;8581;47.334;11.190;2023-03-01T00:56:58;-1.70;99.90
16929;DHT22;8581;47.334;11.190;2023-03-01T00:59:30;-1.70;99.90
16929;DHT22;8581;47.334;11.190;2023-03-01T01:02:01;-1.80;99.90
16929;DHT22;8581;47.334;11.190;2023-03-01T01:04:33;-1.80;99.90
16929;DHT22;8581;47.334;11.190;2023-03-01T01:07:05;-1.90;99.90
16929;DHT22;8581;47.334;11.190;2023-03-01T01:09:36;-2.00;99.90
16929;DHT22;8581;47.334;11.190;2023-03-01T01:12:08;-1.80;99.90
16929;DHT22;8581;47.334;11.190;2023-03-01T01:14:40;-1.90;99.90
16929;DHT22;8581;47.334;11.190;2023-03-01T01:17:11;-1.90;99.90
16929;DHT22;8581;47.334;11.190;2023-03-01T01:19:43;-1.70;99.90
16929;DHT22;8581;47.334;11.190;2023-03-01T01:22:14;-2.00;99.90
16929;DHT22;8581;47.334;11.190;2023-03-01T01:24:46;-2.10;99.90
16929;DHT22;8581;47.334;11.190;2023-03-01T01:27:17;-2.00;99.90
16929;DHT22;8581;47.334;11.190;2023-03-01T01:29:49;-2.00;99.90
16929;DHT22;8581;47.334;11.190;2023-03-01T01:32:21;-2.00;99.90
16929;DHT22;8581;47.334;11.190;2023-03-01T01:34:52;-2.00;99.90
16929;DHT22;8581;47.334;11.190;2023-03-01T01:37:24;-2.10;99.90
16929;DHT22;8581;47.334;11.190;2023-03-01T01:39:55;-2.10;99.90
16929;DHT22;8581;47.334;11.190;2023-03-01T01:42:27;-2.10;99.90
16929;DHT22;8581;47.334;11.190;2023-03-01T01:47:42;-2.00;99.90
16929;DHT22;8581;47.334;11.190;2023-03-01T01:50:14;-2.00;99.90
16929;DHT22;8581;47.334;11.190;2023-03-01T01:52:45;-2.00;99.90
16929;DHT22;8581;47.334;11.190;2023-03-01T01:55:19;-1.80;99.90
16929;DHT22;8581;47.334;11.190;2023-03-01T01:57:52;-1.80;99.90
16929;DHT22;8581;47.334;11.190;2023-03-01T02:00:25;-1.80;99.90
16929;DHT22;8581;47.334;11.190;2023-03-01T02:02:56;-1.80;99.90
16929;DHT22;8581;47.334;11.190;2023-03-01T02:08:12;-1.80;99.90
16929;DHT22;8581;47.334;11.190;2023-03-01T02:10:43;-1.80;99.90
16929;DHT22;8581;47.334;11.190;2023-03-01T02:13:15;-1.90;99.90
16929;DHT22;8581;47.334;11.190;2023-03-01T02:15:46;-1.80;99.90
16929;DHT22;8581;47.334;11.190;2023-03-01T02:18:18;-1.80;99.90
16929;DHT22;8581;47.334;11.190;2023-03-01T02:21:05;-2.00;99.90
16929;DHT22;8581;47.334;11.190;2023-03-01T02:23:33;-1.90;99.90
16929;DHT22;8581;47.334;11.190;2023-03-01T02:26:09;-1.90;99.90
16929;DHT22;8581;47.334;11.190;2023-03-01T02:28:39;-1.90;99.90
16929;DHT22;8581;47.334;11.190;2023-03-01T02:31:10;-1.80;99.90
16929;DHT22;8581;47.334;11.190;2023-03-01T02:33:47;-1.70;99.90
16929;DHT22;8581;47.334;11.190;2023-03-01T02:36:21;-1.70;99.90
16929;DHT22;8581;47.334;11.190;2023-03-01T02:38:52;-1.80;99.90
16929;DHT22;8581;47.334;11.190;2023-03-01T02:41:23;-1.70;99.90
16929;DHT22;8581;47.334;11.190;2023-03-01T02:43:54;-1.80;99.90
16929;DHT22;8581;47.334;11.190;2023-03-01T02:46:26;-1.80;99.90
16929;DHT22;8581;47.334;11.190;2023-03-01T02:48:58;-1.90;99.90
16929;DHT22;8581;47.334;11.190;2023-03-01T02:54:24;-1.80;99.90
16929;DHT22;8581;47.334;11.190;2023-03-01T02:56:53;-2.00;99.90
16929;DHT22;8581;47.334;11.190;2023-03-01T02:59:26;-2.00;99.90
16929;DHT22;8581;47.334;11.190;2023-03-01T03:01:56;-1.90;99.90
16929;DHT22;8581;47.334;11.190;2023-03-01T03:04:28;-1.80;99.90
16929;DHT22;8581;47.334;11.190;2023-03-01T03:06:59;-2.00;99.90
16929;DHT22;8581;47.334;11.190;2023-03-01T03:09:31;-2.00;99.90
16929;DHT22;8581;47.334;11.190;2023-03-01T03:12:03;-2.00;99.90
16929;DHT22;8581;47.334;11.190;2023-03-01T03:14:35;-1.90;99.90
16929;DHT22;8581;47.334;11.190;2023-03-01T03:17:07;-1.90;99.90
16929;DHT22;8581;47.334;11.190;2023-03-01T03:19:38;-2.30;99.90
16929;DHT22;8581;47.334;11.190;2023-03-01T03:22:13;-2.20;99.90
16929;DHT22;8581;47.334;11.190;2023-03-01T03:24:47;-2.20;99.90
16929;DHT22;8581;47.334;11.190;2023-03-01T03:27:20;-2.00;99.90
16929;DHT22;8581;47.334;11.190;2023-03-01T03:29:52;-1.90;99.90
16929;DHT22;8581;47.334;11.190;2023-03-01T03:32:24;-1.90;99.90
16929;DHT22;8581;47.334;11.190;2023-03-01T03:34:55;-1.90;99.90
16929;DHT22;8581;47.334;11.190;2023-03-01T03:37:27;-1.90;99.90
16929;DHT22;8581;47.334;11.190;2023-03-01T03:40:05;-2.00;99.90
16929;DHT22;8581;47.334;11.190;2023-03-01T03:42:37;-2.10;99.90
16929;DHT22;8581;47.334;11.190;2023-03-01T03:45:08;-2.00;99.90
16929;DHT22;8581;47.334;11.190;2023-03-01T03:47:41;-2.10;99.90
16929;DHT22;8581;47.334;11.190;2023-03-01T03:50:13;-1.90;99.90
16929;DHT22;8581;47.334;11.190;2023-03-01T03:52:44;-2.10;99.90
16929;DHT22;8581;47.334;11.190;2023-03-01T03:55:15;-2.30;99.90
16929;DHT22;8581;47.334;11.190;2023-03-01T03:57:47;-2.10;99.90
16929;DHT22;8581;47.334;11.190;2023-03-01T04:00:21;-2.10;99.90
16929;DHT22;8581;47.334;11.190;2023-03-01T04:02:53;-2.10;99.90
16929;DHT22;8581;47.334;11.190;2023-03-01T04:05:26;-2.20;99.90
16929;DHT22;8581;47.334;11.190;2023-03-01T04:07:58;-2.30;99.90
16929;DHT22;8581;47.334;11.190;2023-03-01T04:10:34;-2.40;99.90
16929;DHT22;8581;47.334;11.190;2023-03-01T04:13:05;-2.40;99.90
16929;DHT22;8581;47.334;11.190;2023-03-01T04:15:36;-2.50;99.90
16929;DHT22;8581;47.334;11.190;2023-03-01T04:18:08;-2.40;99.90
16929;DHT22;8581;47.334;11.190;2023-03-01T04:20:39;-2.40;99.90
16929;DHT22;8581;47.334;11.190;2023-03-01T04:23:12;-2.30;99.90
16929;DHT22;8581;47.334;11.190;2023-03-01T04:25:47;-2.30;99.90
16929;DHT22;8581;47.334;11.190;2023-03-01T04:28:17;-2.20;99.90
16929;DHT22;8581;47.334;11.190;2023-03-01T04:30:49;-2.10;99.90
16929;DHT22;8581;47.334;11.190;2023-03-01T04:33:21;-2.10;99.90
16929;DHT22;8581;47.334;11.190;2023-03-01T04:35:52;-2.10;99.90
16929;DHT22;8581;47.334;11.190;2023-03-01T04:38:23;-2.10;99.90
16929;DHT22;8581;47.334;11.190;2023-03-01T04:40:55;-2.10;99.90
16929;DHT22;8581;47.334;11.190;2023-03-01T04:43:27;-2.10;99.90
16929;DHT22;8581;47.334;11.190;2023-03-01T04:46:01;-2.00;99.90
16929;DHT22;8581;47.334;11.190;2023-03-01T04:48:32;-2.00;99.90
16929;DHT22;8581;47.334;11.190;2023-03-01T04:51:05;-2.10;99.90
16929;DHT22;8581;47.334;11.190;2023-03-01T04:53:36;-1.90;99.90
16929;DHT22;8581;47.334;11.190;2023-03-01T04:56:08;-2.10;99.90
16929;DHT22;8581;47.334;11.190;2023-03-01T04:58:39;-2.20;99.90
16929;DHT22;8581;47.334;11.190;2023-03-01T05:01:12;-2.40;99.90
16929;DHT22;8581;47.334;11.190;2023-03-01T05:03:44;-2.40;99.90
16929;DHT22;8581;47.334;11.190;2023-03-01T05:06:15;-2.10;99.90
16929;DHT22;8581;47.334;11.190;2023-03-01T05:08:47;-2.20;99.90
16929;DHT22;8581;47.334;11.190;2023-03-01T05:11:18;-2.10;99.90
16929;DHT22;8581;47.334;11.190;2023-03-01T05:13:50;-2.10;99.90
16929;DHT22;8581;47.334;11.190;2023-03-01T05:16:21;-2.10;99.90
16929;DHT22;8581;47.334;11.190;2023-03-01T05:18:53;-2.20;99.90
16929;DHT22;8581;47.334;11.190;2023-03-01T05:21:25;-2.30;99.90
16929;DHT22;8581;47.334;11.190;2023-03-01T05:23:56;-2.30;99.90
16929;DHT22;8581;47.334;11.190;2023-03-01T05:26:28;-2.40;99.90
16929;DHT22;8581;47.334;11.190;2023-03-01T05:28:59;-2.30;99.90
16929;DHT22;8581;47.334;11.190;2023-03-01T05:31:31;-2.30;99.90
16929;DHT22;8581;47.334;11.190;2023-03-01T05:34:03;-2.40;99.90
16929;DHT22;8581;47.334;11.190;2023-03-01T05:36:34;-2.40;99.90
16929;DHT22;8581;47.334;11.190;2023-03-01T05:39:06;-2.40;99.90
16929;DHT22;8581;47.334;11.190;2023-03-01T05:41:37;-2.60;99.90
16929;DHT22;8581;47.334;11.190;2023-03-01T05:44:09;-2.40;99.90
16929;DHT22;8581;47.334;11.190;2023-03-01T05:46:41;-2.30;99.90
16929;DHT22;8581;47.334;11.190;2023-03-01T05:49:12;-2.40;99.90
16929;DHT22;8581;47.334;11.190;2023-03-01T05:51:48;-2.20;99.90
16929;DHT22;8581;47.334;11.190;2023-03-01T05:54:20;-2.20;99.90
16929;DHT22;8581;47.334;11.190;2023-03-01T05:56:51;-2.20;99.90
16929;DHT22;8581;47.334;11.190;2023-03-01T05:59:22;-2.20;99.90
16929;DHT22;8581;47.334;11.190;2023-03-01T06:01:54;-2.20;99.90
16929;DHT22;8581;47.334;11.190;2023-03-01T06:04:26;-2.10;99.90
16929;DHT22;8581;47.334;11.190;2023-03-01T06:06:57;-2.20;99.90
16929;DHT22;8581;47.334;11.190;2023-03-01T06:09:29;-2.40;99.90
16929;DHT22;8581;47.334;11.190;2023-03-01T06:12:00;-2.40;99.90
16929;DHT22;8581;47.334;11.190;2023-03-01T06:14:32;-2.50;99.90
16929;DHT22;8581;47.334;11.190;2023-03-01T06:17:04;-2.40;99.90
16929;DHT22;8581;47.334;11.190;2023-03-01T06:19:35;-2.40;99.90
16929;DHT22;8581;47.334;11.190;2023-03-01T06:22:07;-2.40;99.90
16929;DHT22;8581;47.334;11.190;2023-03-01T06:24:39;-2.50;99.90
16929;DHT22;8581;47.334;11.190;2023-03-01T06:27:10;-2.50;99.90
16929;DHT22;8581;47.334;11.190;2023-03-01T06:29:42;-2.70;99.90
16929;DHT22;8581;47.334;11.190;2023-03-01T06:32:13;-2.60;99.90
16929;DHT22;8581;47.334;11.190;2023-03-01T06:34:45;-2.50;99.90
16929;DHT22;8581;47.334;11.190;2023-03-01T06:37:17;-2.60;99.90
16929;DHT22;8581;47.334;11.190;2023-03-01T06:39:48;-2.70;99.90
16929;DHT22;8581;47.334;11.190;2023-03-01T06:42:20;-2.70;99.90
16929;DHT22;8581;47.334;11.190;2023-03-01T06:44:51;-2.70;99.90
16929;DHT22;8581;47.334;11.190;2023-03-01T06:47:23;-2.70;99.90
16929;DHT22;8581;47.334;11.190;2023-03-01T06:49:55;-2.40;99.90
16929;DHT22;8581;47.334;11.190;2023-03-01T06:52:26;-2.40;99.90
16929;DHT22;8581;47.334;11.190;2023-03-01T06:54:58;-2.30;99.90
16929;DHT22;8581;47.334;11.190;2023-03-01T06:57:29;-2.10;99.90
16929;DHT22;8581;47.334;11.190;2023-03-01T07:00:02;-2.10;99.90
16929;DHT22;8581;47.334;11.190;2023-03-01T07:02:33;-2.00;99.90
16929;DHT22;8581;47.334;11.190;2023-03-01T07:05:05;-2.30;99.90
16929;DHT22;8581;47.334;11.190;2023-03-01T07:07:36;-2.20;99.90
16929;DHT22;8581;47.334;11.190;2023-03-01T07:10:09;-2.20;99.90
16929;DHT22;8581;47.334;11.190;2023-03-01T07:12:41;-2.30;99.90
16929;DHT22;8581;47.334;11.190;2023-03-01T07:15:13;-2.20;99.90
16929;DHT22;8581;47.334;11.190;2023-03-01T07:17:44;-2.20;99.90
16929;DHT22;8581;47.334;11.190;2023-03-01T07:20:19;-2.20;99.90
16929;DHT22;8581;47.334;11.190;2023-03-01T07:22:56;-2.10;99.90
16929;DHT22;8581;47.334;11.190;2023-03-01T07:25:27;-2.20;99.90
16929;DHT22;8581;47.334;11.190;2023-03-01T07:28:06;-2.10;99.90
16929;DHT22;8581;47.334;11.190;2023-03-01T07:30:42;-2.40;99.90
16929;DHT22;8581;47.334;11.190;2023-03-01T07:33:19;-2.40;99.90
16929;DHT22;8581;47.334;11.190;2023-03-01T07:35:56;-2.60;99.90
16929;DHT22;8581;47.334;11.190;2023-03-01T07:38:27;-2.50;99.90
16929;DHT22;8581;47.334;11.190;2023-03-01T07:40:59;-2.50;99.90
16929;DHT22;8581;47.334;11.190;2023-03-01T07:43:30;-2.40;99.90
16929;DHT22;8581;47.334;11.190;2023-03-01T07:46:10;-2.40;99.90
16929;DHT22;8581;47.334;11.190;2023-03-01T07:48:41;-2.20;99.90
16929;DHT22;8581;47.334;11.190;2023-03-01T07:51:13;-2.00;99.90
16929;DHT22;8581;47.334;11.190;2023-03-01T07:53:47;-2.00;99.90
16929;DHT22;8581;47.334;11.190;2023-03-01T07:56:23;-1.80;99.90
16929;DHT22;8581;47.334;11.190;2023-03-01T07:58:58;-1.80;99.90
16929;DHT22;8581;47.334;11.190;2023-03-01T08:01:32;-1.60;99.90
16929;DHT22;8581;47.334;11.190;2023-03-01T08:04:07;-1.60;99.90
16929;DHT22;8581;47.334;11.190;2023-03-01T08:06:40;-1.50;99.90
16929;DHT22;8581;47.334;11.190;2023-03-01T08:09:14;-1.50;99.90
16929;DHT22;8581;47.334;11.190;2023-03-01T08:11:51;-1.50;99.90
16929;DHT22;8581;47.334;11.190;2023-03-01T08:14:23;-1.50;99.90
16929;DHT22;8581;47.334;11.190;2023-03-01T08:16:54;-1.60;99.90
16929;DHT22;8581;47.334;11.190;2023-03-01T08:19:26;-1.70;99.90
16929;DHT22;8581;47.334;11.190;2023-03-01T08:21:58;-1.80;99.90
16929;DHT22;8581;47.334;11.190;2023-03-01T08:24:31;-1.50;99.90
16929;DHT22;8581;47.334;11.190;2023-03-01T08:27:04;-1.50;99.90
16929;DHT22;8581;47.334;11.190;2023-03-01T08:29:36;-1.20;99.90
16929;DHT22;8581;47.334;11.190;2023-03-01T08:32:17;-1.10;99.90
16929;DHT22;8581;47.334;11.190;2023-03-01T08:34:49;-1.10;99.90
16929;DHT22;8581;47.334;11.190;2023-03-01T08:37:38;-0.90;99.90
16929;DHT22;8581;47.334;11.190;2023-03-01T08:40:10;-0.90;99.90
16929;DHT22;8581;47.334;11.190;2023-03-01T08:42:42;-1.00;99.90
16929;DHT22;8581;47.334;11.190;2023-03-01T08:45:14;-0.70;99.90
16929;DHT22;8581;47.334;11.190;2023-03-01T08:47:46;-0.40;99.90
16929;DHT22;8581;47.334;11.190;2023-03-01T08:50:18;-0.50;99.90
16929;DHT22;8581;47.334;11.190;2023-03-01T08:52:50;-0.50;99.90
16929;DHT22;8581;47.334;11.190;2023-03-01T08:55:21;-0.50;99.90
16929;DHT22;8581;47.334;11.190;2023-03-01T08:57:53;-0.50;99.90
16929;DHT22;8581;47.334;11.190;2023-03-01T09:00:24;-0.40;99.90
16929;DHT22;8581;47.334;11.190;2023-03-01T09:02:56;-0.30;99.90
16929;DHT22;8581;47.334;11.190;2023-03-01T09:05:27;0.00;99.90
16929;DHT22;8581;47.334;11.190;2023-03-01T09:08:02;0.00;99.90
16929;DHT22;8581;47.334;11.190;2023-03-01T09:10:39;-0.10;99.90
16929;DHT22;8581;47.334;11.190;2023-03-01T09:13:10;0.00;99.90
16929;DHT22;8581;47.334;11.190;2023-03-01T09:15:43;0.10;99.90
16929;DHT22;8581;47.334;11.190;2023-03-01T09:18:15;0.40;99.90
16929;DHT22;8581;47.334;11.190;2023-03-01T09:20:46;0.20;99.90
16929;DHT22;8581;47.334;11.190;2023-03-01T09:23:18;0.50;99.90
16929;DHT22;8581;47.334;11.190;2023-03-01T09:25:49;0.60;99.90
16929;DHT22;8581;47.334;11.190;2023-03-01T09:28:25;0.10;99.90
16929;DHT22;8581;47.334;11.190;2023-03-01T09:31:05;-0.20;99.90
16929;DHT22;8581;47.334;11.190;2023-03-01T09:33:37;-0.20;99.90
16929;DHT22;8581;47.334;11.190;2023-03-01T09:36:12;-0.20;99.90
16929;DHT22;8581;47.334;11.190;2023-03-01T09:38:45;-0.10;99.90
16929;DHT22;8581;47.334;11.190;2023-03-01T09:41:36;0.40;99.90
16929;DHT22;8581;47.334;11.190;2023-03-01T09:44:10;0.80;99.90
16929;DHT22;8581;47.334;11.190;2023-03-01T09:46:38;1.10;99.90
16929;DHT22;8581;47.334;11.190;2023-03-01T09:49:14;1.60;99.90
16929;DHT22;8581;47.334;11.190;2023-03-01T09:51:48;1.80;99.90
16929;DHT22;8581;47.334;11.190;2023-03-01T09:54:15;1.70;99.90
16929;DHT22;8581;47.334;11.190;2023-03-01T09:56:53;1.50;99.90
16929;DHT22;8581;47.334;11.190;2023-03-01T09:59:25;1.50;99.90
16929;DHT22;8581;47.334;11.190;2023-03-01T10:01:59;1.40;99.90
16929;DHT22;8581;47.334;11.190;2023-03-01T10:10:07;3.00;99.90
16929;DHT22;8581;47.334;11.190;2023-03-01T10:12:39;3.70;99.90
16929;DHT22;8581;47.334;11.190;2023-03-01T10:18:11;4.80;99.90
16929;DHT22;8581;47.334;11.190;2023-03-01T10:20:47;5.10;99.90
16929;DHT22;8581;47.334;11.190;2023-03-01T10:23:19;4.60;99.90
16929;DHT22;8581;47.334;11.190;2023-03-01T10:26:31;5.30;99.90
16929;DHT22;8581;47.334;11.190;2023-03-01T10:28:57;5.60;99.90
16929;DHT22;8581;47.334;11.190;2023-03-01T10:31:27;5.50;99.90
16929;DHT22;8581;47.334;11.190;2023-03-01T10:33:57;5.90;99.90
16929;DHT22;8581;47.334;11.190;2023-03-01T10:36:29;5.90;99.90
16929;DHT22;8581;47.334;11.190;2023-03-01T10:39:00;6.30;99.90
16929;DHT22;8581;47.334;11.190;2023-03-01T10:41:32;6.50;99.90
16929;DHT22;8581;47.334;11.190;2023-03-01T10:44:03;6.90;99.90
16929;DHT22;8581;47.334;11.190;2023-03-01T10:46:36;6.60;99.90
16929;DHT22;8581;47.334;11.190;2023-03-01T10:49:13;6.50;99.90
16929;DHT22;8581;47.334;11.190;2023-03-01T10:51:44;6.90;99.90
16929;DHT22;8581;47.334;11.190;2023-03-01T10:54:19;6.60;99.90
16929;DHT22;8581;47.334;11.190;2023-03-01T10:56:52;6.80;99.90
16929;DHT22;8581;47.334;11.190;2023-03-01T10:59:29;7.30;99.90
16929;DHT22;8581;47.334;11.190;2023-03-01T11:02:14;7.40;99.90
16929;DHT22;8581;47.334;11.190;2023-03-01T11:04:36;7.20;99.90
16929;DHT22;8581;47.334;11.190;2023-03-01T11:07:07;7.20;99.90
16929;DHT22;8581;47.334;11.190;2023-03-01T11:09:39;7.20;99.90
16929;DHT22;8581;47.334;11.190;2023-03-01T11:12:14;7.50;99.90
16929;DHT22;8581;47.334;11.190;2023-03-01T11:14:48;8.00;99.90
16929;DHT22;8581;47.334;11.190;2023-03-01T11:17:30;8.50;99.90
16929;DHT22;8581;47.334;11.190;2023-03-01T11:20:06;8.80;99.90
16929;DHT22;8581;47.334;11.190;2023-03-01T11:22:35;8.70;99.90
16929;DHT22;8581;47.334;11.190;2023-03-01T11:25:07;8.80;99.90
16929;DHT22;8581;47.334;11.190;2023-03-01T11:27:41;9.10;99.90
16929;DHT22;8581;47.334;11.190;2023-03-01T11:30:18;9.30;99.90
16929;DHT22;8581;47.334;11.190;2023-03-01T11:33:03;9.70;99.90
16929;DHT22;8581;47.334;11.190;2023-03-01T11:35:35;10.80;99.90
16929;DHT22;8581;47.334;11.190;2023-03-01T11:38:22;11.10;99.90
16929;DHT22;8581;47.334;11.190;2023-03-01T11:41:15;11.50;99.90
16929;DHT22;8581;47.334;11.190;2023-03-01T11:43:56;12.70;99.90
16929;DHT22;8581;47.334;11.190;2023-03-01T11:47:17;13.50;99.90
16929;DHT22;8581;47.334;11.190;2023-03-01T11:49:45;13.30;99.90
16929;DHT22;8581;47.334;11.190;2023-03-01T11:53:28;14.10;98.70
16929;DHT22;8581;47.334;11.190;2023-03-01T11:55:17;14.60;97.60
16929;DHT22;8581;47.334;11.190;2023-03-01T11:57:55;14.00;98.00
16929;DHT22;8581;47.334;11.190;2023-03-01T12:00:37;14.60;97.50
16929;DHT22;8581;47.334;11.190;2023-03-01T12:03:06;14.90;97.20
16929;DHT22;8581;47.334;11.190;2023-03-01T12:08:20;15.90;95.10
16929;DHT22;8581;47.334;11.190;2023-03-01T12:12:23;16.00;94.40
16929;DHT22;8581;47.334;11.190;2023-03-01T12:14:04;16.70;93.00
16929;DHT22;8581;47.334;11.190;2023-03-01T12:19:33;15.10;91.60
16929;DHT22;8581;47.334;11.190;2023-03-01T12:22:27;18.80;90.10
16929;DHT22;8581;47.334;11.190;2023-03-01T12:25:02;18.40;89.40
16929;DHT22;8581;47.334;11.190;2023-03-01T12:27:43;17.80;89.00
16929;DHT22;8581;47.334;11.190;2023-03-01T12:35:56;18.40;84.30
16929;DHT22;8581;47.334;11.190;2023-03-01T12:47:05;16.00;88.40
16929;DHT22;8581;47.334;11.190;2023-03-01T12:49:56;16.40;89.00
16929;DHT22;8581;47.334;11.190;2023-03-01T12:52:44;16.90;87.60
16929;DHT22;8581;47.334;11.190;2023-03-01T12:55:38;16.50;88.80
16929;DHT22;8581;47.334;11.190;2023-03-01T12:58:27;17.90;85.30
16929;DHT22;8581;47.334;11.190;2023-03-01T13:01:05;18.30;84.60
16929;DHT22;8581;47.334;11.190;2023-03-01T13:09:51;20.00;79.30
16929;DHT22;8581;47.334;11.190;2023-03-01T13:12:44;20.60;72.50
16929;DHT22;8581;47.334;11.190;2023-03-01T13:15:27;20.90;76.20
16929;DHT22;8581;47.334;11.190;2023-03-01T13:18:01;21.50;73.80
16929;DHT22;8581;47.334;11.190;2023-03-01T13:20:46;20.30;73.40
16929;DHT22;8581;47.334;11.190;2023-03-01T13:23:35;20.70;74.50
16929;DHT22;8581;47.334;11.190;2023-03-01T13:26:07;18.80;75.60
16929;DHT22;8581;47.334;11.190;2023-03-01T13:28:46;17.30;79.00
16929;DHT22;8581;47.334;11.190;2023-03-01T13:31:55;17.70;80.90
16929;DHT22;8581;47.334;11.190;2023-03-01T13:37:16;16.40;79.10
16929;DHT22;8581;47.334;11.190;2023-03-01T13:39:42;16.80;84.50
16929;DHT22;8581;47.334;11.190;2023-03-01T13:42:28;18.50;79.00
16929;DHT22;8581;47.334;11.190;2023-03-01T13:44:56;17.50;79.50
16929;DHT22;8581;47.334;11.190;2023-03-01T13:47:27;17.90;81.00
16929;DHT22;8581;47.334;11.190;2023-03-01T13:50:00;18.60;78.70
16929;DHT22;8581;47.334;11.190;2023-03-01T13:52:52;19.10;78.60
16929;DHT22;8581;47.334;11.190;2023-03-01T13:55:24;19.10;77.10
16929;DHT22;8581;47.334;11.190;2023-03-01T13:57:56;18.20;80.10
16929;DHT22;8581;47.334;11.190;2023-03-01T14:00:33;18.90;76.50
16929;DHT22;8581;47.334;11.190;2023-03-01T14:03:05;18.70;77.60
16929;DHT22;8581;47.334;11.190;2023-03-01T14:05:36;17.50;80.40
16929;DHT22;8581;47.334;11.190;2023-03-01T14:08:28;18.90;77.70
16929;DHT22;8581;47.334;11.190;2023-03-01T14:14:08;21.70;74.20
16929;DHT22;8581;47.334;11.190;2023-03-01T14:19:38;22.80;70.20
16929;DHT22;8581;47.334;11.190;2023-03-01T14:22:16;21.30;69.80
16929;DHT22;8581;47.334;11.190;2023-03-01T14:24:47;20.10;73.40
16929;DHT22;8581;47.334;11.190;2023-03-01T14:27:18;19.80;75.60
16929;DHT22;8581;47.334;11.190;2023-03-01T14:29:55;20.70;72.20
16929;DHT22;8581;47.334;11.190;2023-03-01T14:32:26;20.60;72.60
16929;DHT22;8581;47.334;11.190;2023-03-01T14:34:57;22.00;71.90
16929;DHT22;8581;47.334;11.190;2023-03-01T14:37:32;23.10;69.10
16929;DHT22;8581;47.334;11.190;2023-03-01T14:40:03;21.90;70.00
16929;DHT22;8581;47.334;11.190;2023-03-01T14:42:35;21.50;70.10
16929;DHT22;8581;47.334;11.190;2023-03-01T14:45:09;20.90;72.00
16929;DHT22;8581;47.334;11.190;2023-03-01T14:47:39;21.10;73.30
16929;DHT22;8581;47.334;11.190;2023-03-01T14:50:18;21.00;72.80
16929;DHT22;8581;47.334;11.190;2023-03-01T14:52:47;21.80;72.10
16929;DHT22;8581;47.334;11.190;2023-03-01T14:55:19;23.00;71.40
16929;DHT22;8581;47.334;11.190;2023-03-01T14:57:50;22.90;70.00
16929;DHT22;8581;47.334;11.190;2023-03-01T15:00:24;23.00;68.60
16929;DHT22;8581;47.334;11.190;2023-03-01T15:02:55;22.20;71.60
16929;DHT22;8581;47.334;11.190;2023-03-01T15:05:30;21.40;71.00
16929;DHT22;8581;47.334;11.190;2023-03-01T15:08:01;20.40;70.40
16929;DHT22;8581;47.334;11.190;2023-03-01T15:10:33;19.40;72.50
16929;DHT22;8581;47.334;11.190;2023-03-01T15:13:11;19.40;73.50
16929;DHT22;8581;47.334;11.190;2023-03-01T15:15:42;19.90;73.50
16929;DHT22;8581;47.334;11.190;2023-03-01T15:18:22;19.90;73.70
16929;DHT22;8581;47.334;11.190;2023-03-01T15:20:53;19.90;76.30
16929;DHT22;8581;47.334;11.190;2023-03-01T15:23:25;19.40;77.30
16929;DHT22;8581;47.334;11.190;2023-03-01T15:25:56;19.80;76.30
16929;DHT22;8581;47.334;11.190;2023-03-01T15:28:29;19.70;76.80
16929;DHT22;8581;47.334;11.190;2023-03-01T15:31:12;18.20;79.40
16929;DHT22;8581;47.334;11.190;2023-03-01T15:33:36;18.10;80.90
16929;DHT22;8581;47.334;11.190;2023-03-01T15:38:56;17.70;81.00
16929;DHT22;8581;47.334;11.190;2023-03-01T15:41:27;17.20;82.30
16929;DHT22;8581;47.334;11.190;2023-03-01T15:43:59;15.90;84.70
16929;DHT22;8581;47.334;11.190;2023-03-01T15:46:33;16.50;84.60
16929;DHT22;8581;47.334;11.190;2023-03-01T15:49:05;16.50;83.60
16929;DHT22;8581;47.334;11.190;2023-03-01T15:51:36;15.90;85.20
16929;DHT22;8581;47.334;11.190;2023-03-01T15:54:15;16.10;83.40
16929;DHT22;8581;47.334;11.190;2023-03-01T15:56:44;15.30;86.50
16929;DHT22;8581;47.334;11.190;2023-03-01T15:59:15;14.10;86.90
16929;DHT22;8581;47.334;11.190;2023-03-01T16:01:47;12.10;91.90
16929;DHT22;8581;47.334;11.190;2023-03-01T16:04:19;11.80;91.10
16929;DHT22;8581;47.334;11.190;2023-03-01T16:06:53;10.90;93.90
16929;DHT22;8581;47.334;11.190;2023-03-01T16:09:26;10.30;94.80
16929;DHT22;8581;47.334;11.190;2023-03-01T16:11:57;9.60;96.10
16929;DHT22;8581;47.334;11.190;2023-03-01T16:14:29;8.10;98.10
16929;DHT22;8581;47.334;11.190;2023-03-01T16:17:00;7.90;99.40
16929;DHT22;8581;47.334;11.190;2023-03-01T16:19:32;7.20;99.90
16929;DHT22;8581;47.334;11.190;2023-03-01T16:22:03;7.20;99.90
16929;DHT22;8581;47.334;11.190;2023-03-01T16:24:35;6.70;99.90
16929;DHT22;8581;47.334;11.190;2023-03-01T16:27:07;6.30;99.90
16929;DHT22;8581;47.334;11.190;2023-03-01T16:29:38;5.70;99.90
16929;DHT22;8581;47.334;11.190;2023-03-01T16:32:10;5.50;99.90
16929;DHT22;8581;47.334;11.190;2023-03-01T16:34:41;5.20;99.90
16929;DHT22;8581;47.334;11.190;2023-03-01T16:37:13;5.00;99.90
16929;DHT22;8581;47.334;11.190;2023-03-01T16:39:45;4.50;99.90
16929;DHT22;8581;47.334;11.190;2023-03-01T16:42:17;4.20;99.90
16929;DHT22;8581;47.334;11.190;2023-03-01T16:44:51;3.60;99.90
16929;DHT22;8581;47.334;11.190;2023-03-01T16:47:20;3.30;99.90
16929;DHT22;8581;47.334;11.190;2023-03-01T16:49:52;2.90;99.90
16929;DHT22;8581;47.334;11.190;2023-03-01T16:52:23;2.70;99.90
16929;DHT22;8581;47.334;11.190;2023-03-01T16:54:55;2.70;99.90
16929;DHT22;8581;47.334;11.190;2023-03-01T16:57:27;2.50;99.90
16929;DHT22;8581;47.334;11.190;2023-03-01T16:59:58;2.20;99.90
16929;DHT22;8581;47.334;11.190;2023-03-01T17:02:30;2.00;99.90
16929;DHT22;8581;47.334;11.190;2023-03-01T17:05:02;1.80;99.90
16929;DHT22;8581;47.334;11.190;2023-03-01T17:07:34;1.70;99.90
16929;DHT22;8581;47.334;11.190;2023-03-01T17:10:07;1.70;99.90